Time;durP1;ratioP1;P1;durP2;ratioP2;P2;SDS_P1;SDS_P2;PMS_P1;PMS_P2;Temp;Humidity;BMP_temperature;BMP_pressure;BME280_temperature;BME280_humidity;BME280_pressure;Samples;Min_cycle;Max_cycle;Signal;HPM_P1;HPM_P2
2023/07/07 00:02:43;;;;;;;;;;;;;;;24.00;57.07;100539.31;5453529;32;35010;-82
2023/07/07 00:05:45;;;;;;;;;;;;;;;24.04;56.81;100539.88;5450459;32;35208;-76
2023/07/07 00:08:47;;;;;;;;;;;;;;;24.59;55.15;100548.13;5466812;32;34213;-76
2023/07/07 00:11:49;;;;;;;;;;;;;;;23.96;56.90;100542.44;5451438;32;34278;-75
2023/07/07 00:14:51;;;;;;;;;;;;;;;23.38;58.98;100547.72;5463217;32;34735;-75
2023/07/07 00:17:53;;;;;;;;;;;;;;;23.76;57.81;100545.13;5453279;32;34719;-76
2023/07/07 00:20:58;;;;;;;;;;;;;;;23.27;59.28;100543.34;5455854;32;35406;-75
2023/07/07 00:24:01;;;;;;;;;;;;;;;23.18;59.81;100547.66;5452630;32;34755;-82
2023/07/07 00:27:03;;;;;;;;;;;;;;;23.56;58.46;100546.03;5436924;32;35406;-80
2023/07/07 00:30:06;;;;;;;;;;;;;;;23.69;57.99;100549.34;5451118;32;34601;-75
2023/07/07 00:33:08;;;;;;;;;;;;;;;23.77;56.73;100549.50;5466889;32;34898;-77
2023/07/07 00:36:10;;;;;;;;;;;;;;;23.50;57.91;100550.13;5448332;32;35244;-80
2023/07/07 00:39:12;;;;;;;;;;;;;;;23.49;57.79;100542.22;5469936;32;34141;-74
2023/07/07 00:42:14;;;;;;;;;;;;;;;23.37;58.16;100549.53;5464738;32;34975;-82
2023/07/07 00:45:17;;;;;;;;;;;;;;;23.98;56.38;100543.13;5449815;32;34804;-78
2023/07/07 00:48:20;;;;;;;;;;;;;;;23.97;55.71;100541.44;5465903;32;34802;-81
2023/07/07 00:51:23;;;;;;;;;;;;;;;23.54;57.09;100539.97;5451773;32;34547;-80
2023/07/07 00:54:29;;;;;;;;;;;;;;;23.22;58.06;100556.28;5465400;32;35470;-76
2023/07/07 00:57:31;;;;;;;;;;;;;;;23.53;56.36;100546.34;5437550;32;35022;-82
2023/07/07 01:00:34;;;;;;;;;;;;;;;23.48;56.27;100545.91;5440515;32;34851;-82
2023/07/07 01:03:37;;;;;;;;;;;;;;;23.54;56.15;100552.56;5436995;32;34686;-75
2023/07/07 01:06:41;;;;;;;;;;;;;;;23.48;56.12;100556.63;5452145;32;34893;-83
2023/07/07 01:09:43;;;;;;;;;;;;;;;23.42;56.20;100557.19;5448046;32;34076;-81
2023/07/07 01:12:46;;;;;;;;;;;;;;;23.23;56.45;100563.34;5463631;32;34677;-83
2023/07/07 01:16:11;;;;;;;;;;;;;;;22.57;59.24;100563.75;5466393;32;36544;-76
2023/07/07 01:19:15;;;;;;;;;;;;;;;23.49;56.60;100558.31;5438331;32;34642;-75
2023/07/07 01:22:36;;;;;;;;;;;;;;;23.71;55.78;100566.16;5467279;32;35270;-81
2023/07/07 01:25:55;;;;;;;;;;;;;;;23.34;56.79;100568.59;5449049;32;35493;-76
2023/07/07 01:29:05;;;;;;;;;;;;;;;22.78;58.55;100565.56;5464109;32;33944;-76
2023/07/07 01:32:08;;;;;;;;;;;;;;;23.90;55.26;100559.13;5442184;32;34221;-82
2023/07/07 01:35:12;;;;;;;;;;;;;;;23.24;57.04;100573.94;5451305;32;35001;-76
2023/07/07 01:38:35;;;;;;;;;;;;;;;23.03;57.59;100569.63;5453164;32;35219;-82
2023/07/07 01:41:44;;;;;;;;;;;;;;;23.04;57.64;100569.50;5449163;32;34143;-76
2023/07/07 01:44:46;;;;;;;;;;;;;;;23.54;56.29;100564.12;5433689;32;36756;-82
2023/07/07 01:47:52;;;;;;;;;;;;;;;22.94;57.87;100571.31;5452522;32;35142;-82
2023/07/07 01:50:54;;;;;;;;;;;;;;;22.97;57.91;100573.72;5449941;32;34918;-77
2023/07/07 01:53:57;;;;;;;;;;;;;;;22.92;58.10;100576.78;5452725;32;34466;-77
2023/07/07 01:56:59;;;;;;;;;;;;;;;23.15;57.45;100574.75;5449972;32;36105;-77
2023/07/07 02:00:00;;;;;;;;;;;;;;;22.93;58.27;100577.66;5466910;32;34239;-74
2023/07/07 02:03:07;;;;;;;;;;;;;;;23.62;56.26;100560.78;5451028;32;34633;-77
2023/07/07 02:06:10;;;;;;;;;;;;;;;23.35;57.08;100567.62;5464240;32;34583;-81
2023/07/07 02:09:12;;;;;;;;;;;;;;;22.54;60.19;100565.84;5456347;32;34176;-77
2023/07/07 02:12:14;;;;;;;;;;;;;;;23.30;57.98;100571.69;5464556;32;34614;-81
2023/07/07 02:15:16;;;;;;;;;;;;;;;22.81;59.37;100568.81;5442386;32;34555;-82
2023/07/07 02:18:19;;;;;;;;;;;;;;;22.47;60.85;100573.56;5449688;32;35150;-80
2023/07/07 02:21:21;;;;;;;;;;;;;;;22.14;61.92;100567.44;5439361;32;34373;-80
2023/07/07 02:24:23;;;;;;;;;;;;;;;22.55;60.31;100572.94;5467211;32;35407;-81
2023/07/07 02:27:25;;;;;;;;;;;;;;;23.45;57.67;100564.97;5428076;32;34232;-81
2023/07/07 02:30:28;;;;;;;;;;;;;;;23.12;58.00;100571.50;5472937;32;34106;-81
2023/07/07 02:33:33;;;;;;;;;;;;;;;22.29;60.83;100580.50;5446423;32;33023;-77
2023/07/07 02:36:38;;;;;;;;;;;;;;;22.24;61.42;100578.22;5467827;32;37048;-75
2023/07/07 02:39:42;;;;;;;;;;;;;;;22.60;59.80;100571.53;5449960;32;34734;-80
2023/07/07 02:42:46;;;;;;;;;;;;;;;22.23;60.99;100573.84;5452388;32;35612;-75
2023/07/07 02:45:48;;;;;;;;;;;;;;;22.14;60.98;100567.44;5457589;32;36059;-75
2023/07/07 02:48:50;;;;;;;;;;;;;;;22.44;60.15;100571.16;5455683;32;35130;-81
2023/07/07 02:51:51;;;;;;;;;;;;;;;22.43;59.71;100577.50;5467552;32;34769;-75
2023/07/07 02:54:54;;;;;;;;;;;;;;;22.55;59.73;100571.09;5461304;32;35005;-75
2023/07/07 02:57:57;;;;;;;;;;;;;;;22.59;58.91;100571.66;5455056;32;34430;-81
2023/07/07 03:01:10;;;;;;;;;;;;;;;22.46;59.20;100573.69;5441024;32;34269;-76
2023/07/07 03:04:12;;;;;;;;;;;;;;;23.10;57.18;100579.69;5466416;32;33712;-76
2023/07/07 03:07:14;;;;;;;;;;;;;;;22.33;58.62;100577.41;5437464;32;35178;-78
2023/07/07 03:10:16;;;;;;;;;;;;;;;22.69;57.85;100588.66;5465994;32;35441;-76
2023/07/07 03:13:19;;;;;;;;;;;;;;;23.46;54.88;100580.06;5466215;32;34383;-81
2023/07/07 03:16:22;;;;;;;;;;;;;;;22.98;55.62;100591.47;5435366;32;35021;-75
2023/07/07 03:19:24;;;;;;;;;;;;;;;23.20;54.69;100596.66;5450715;32;34209;-75
2023/07/07 03:22:26;;;;;;;;;;;;;;;22.40;57.02;100600.00;5448183;32;34580;-75
2023/07/07 03:25:28;;;;;;;;;;;;;;;22.59;56.20;100599.28;5448478;32;36485;-75
2023/07/07 03:28:30;;;;;;;;;;;;;;;22.64;56.20;100607.78;5467261;32;34886;-81
2023/07/07 03:31:32;;;;;;;;;;;;;;;23.37;53.56;100613.91;5448344;32;34118;-76
2023/07/07 03:34:36;;;;;;;;;;;;;;;22.93;54.10;100608.00;5451594;32;34632;-75
2023/07/07 03:37:39;;;;;;;;;;;;;;;22.57;55.24;100611.13;5462904;32;34172;-82
2023/07/07 03:40:47;;;;;;;;;;;;;;;23.21;52.75;100611.75;5438337;32;34738;-76
2023/07/07 03:43:53;;;;;;;;;;;;;;;23.08;53.91;100615.66;5464746;32;34532;-76
2023/07/07 03:46:55;;;;;;;;;;;;;;;23.32;53.12;100613.50;5432573;32;35296;-76
2023/07/07 03:49:57;;;;;;;;;;;;;;;23.14;53.63;100618.66;5466406;32;34396;-81
2023/07/07 03:52:59;;;;;;;;;;;;;;;23.34;52.40;100621.41;5462511;32;35440;-82
2023/07/07 03:56:01;;;;;;;;;;;;;;;22.71;53.64;100622.34;5451470;32;34832;-80
2023/07/07 03:59:03;;;;;;;;;;;;;;;22.47;54.16;100623.59;5448141;32;35244;-75
2023/07/07 04:02:05;;;;;;;;;;;;;;;22.77;51.51;100625.47;5452505;32;34684;-82
2023/07/07 04:05:07;;;;;;;;;;;;;;;22.56;52.14;100625.50;5450367;32;34825;-77
2023/07/07 04:08:09;;;;;;;;;;;;;;;22.61;52.45;100631.31;5463119;32;35315;-75
2023/07/07 04:11:14;;;;;;;;;;;;;;;22.71;51.86;100638.41;5466116;32;34707;-81
2023/07/07 04:14:17;;;;;;;;;;;;;;;22.57;51.31;100633.41;5435203;32;34133;-81
2023/07/07 04:17:19;;;;;;;;;;;;;;;23.19;50.07;100637.88;5448558;32;35831;-76
2023/07/07 04:20:21;;;;;;;;;;;;;;;23.41;49.81;100639.50;5462737;32;34331;-75
2023/07/07 04:23:23;;;;;;;;;;;;;;;23.34;50.23;100640.16;5434441;32;34902;-76
2023/07/07 04:26:25;;;;;;;;;;;;;;;22.58;51.55;100642.28;5465172;32;34944;-82
2023/07/07 04:29:28;;;;;;;;;;;;;;;22.52;52.61;100646.34;5468302;32;34900;-82
2023/07/07 04:32:30;;;;;;;;;;;;;;;23.30;49.67;100652.12;5452182;32;35680;-81
2023/07/07 04:35:36;;;;;;;;;;;;;;;22.20;52.89;100651.72;5458001;32;36253;-75
2023/07/07 04:38:38;;;;;;;;;;;;;;;22.37;52.25;100653.00;5467703;32;35441;-80
2023/07/07 04:41:40;;;;;;;;;;;;;;;23.18;50.15;100657.59;5463792;32;34661;-81
2023/07/07 04:44:42;;;;;;;;;;;;;;;23.82;48.59;100660.94;5463321;32;34682;-80
2023/07/07 04:47:44;;;;;;;;;;;;;;;23.93;48.44;100661.66;5471662;32;34589;-82
2023/07/07 04:50:46;;;;;;;;;;;;;;;23.91;48.25;100665.47;5448317;32;34320;-82
2023/07/07 04:53:48;;;;;;;;;;;;;;;23.51;48.96;100672.56;5468791;32;35257;-76
2023/07/07 04:56:50;;;;;;;;;;;;;;;23.86;48.24;100670.41;5450429;32;35465;-76
2023/07/07 04:59:52;;;;;;;;;;;;;;;23.08;48.50;100678.16;5457627;32;34600;-85
2023/07/07 05:02:54;;;;;;;;;;;;;;;23.56;47.58;100672.13;5436108;32;34791;-76
2023/07/07 05:05:57;;;;;;;;;;;;;;;23.34;48.25;100672.34;5463605;32;34691;-77
2023/07/07 05:09:00;;;;;;;;;;;;;;;23.46;48.22;100674.81;5453700;32;35013;-75
2023/07/07 05:12:03;;;;;;;;;;;;;;;23.94;45.92;100679.47;5441484;32;35681;-75
2023/07/07 05:15:05;;;;;;;;;;;;;;;24.15;46.20;100668.63;5456736;32;35969;-75
2023/07/07 05:18:07;;;;;;;;;;;;;;;23.84;46.67;100677.75;5465902;32;35404;-82
2023/07/07 05:21:11;;;;;;;;;;;;;;;23.66;47.24;100685.63;5440763;32;35114;-83
2023/07/07 05:24:13;;;;;;;;;;;;;;;23.67;46.46;100688.16;5450290;32;32743;-76
2023/07/07 05:27:15;;;;;;;;;;;;;;;24.08;45.67;100686.25;5464162;32;34854;-76
2023/07/07 05:30:17;;;;;;;;;;;;;;;23.08;47.75;100686.19;5454016;32;35760;-81
2023/07/07 05:33:20;;;;;;;;;;;;;;;23.14;48.07;100688.34;5436376;32;35305;-82
2023/07/07 05:36:22;;;;;;;;;;;;;;;23.21;47.88;100694.87;5469521;32;35206;-83
2023/07/07 05:39:24;;;;;;;;;;;;;;;23.59;46.82;100689.81;5467628;32;34697;-82
2023/07/07 05:42:26;;;;;;;;;;;;;;;24.38;44.66;100685.31;5457191;32;33967;-83
2023/07/07 05:45:28;;;;;;;;;;;;;;;24.02;45.37;100693.06;5463591;32;34301;-82
2023/07/07 05:48:30;;;;;;;;;;;;;;;24.59;43.83;100687.84;5451792;32;34731;-76
2023/07/07 05:51:32;;;;;;;;;;;;;;;24.59;42.67;100693.22;5455230;32;34633;-81
2023/07/07 05:54:35;;;;;;;;;;;;;;;25.06;40.48;100687.94;5455849;32;34614;-80
2023/07/07 05:57:37;;;;;;;;;;;;;;;25.32;40.27;100694.37;5449183;32;34881;-76
2023/07/07 06:00:39;;;;;;;;;;;;;;;26.20;38.50;100698.25;5472807;32;35077;-76
2023/07/07 06:03:43;;;;;;;;;;;;;;;26.84;37.26;100696.31;5458577;32;34704;-84
2023/07/07 06:06:46;;;;;;;;;;;;;;;26.60;38.43;100706.91;5455726;32;35332;-83
2023/07/07 06:09:48;;;;;;;;;;;;;;;27.66;37.33;100703.03;5474488;32;35437;-82
2023/07/07 06:12:51;;;;;;;;;;;;;;;27.92;37.12;100704.84;5477534;32;34972;-76
2023/07/07 06:15:53;;;;;;;;;;;;;;;27.90;37.21;100713.12;5458472;32;34922;-83
2023/07/07 06:18:56;;;;;;;;;;;;;;;28.04;36.90;100715.19;5461472;32;34401;-82
2023/07/07 06:21:58;;;;;;;;;;;;;;;28.13;36.90;100723.28;5449088;32;33468;-76
2023/07/07 06:25:03;;;;;;;;;;;;;;;26.91;39.35;100718.09;5461976;32;35070;-76
2023/07/07 06:28:04;;;;;;;;;;;;;;;27.14;39.10;100710.38;5458568;32;34683;-77
2023/07/07 06:31:06;;;;;;;;;;;;;;;27.65;37.98;100716.72;5473239;32;33307;-76
2023/07/07 06:34:11;;;;;;;;;;;;;;;28.33;37.07;100719.31;5465875;32;35355;-76
2023/07/07 06:37:13;;;;;;;;;;;;;;;30.99;32.07;100713.22;5474113;32;34417;-77
2023/07/07 06:40:15;;;;;;;;;;;;;;;29.30;33.96;100717.56;5474141;32;35029;-76
2023/07/07 06:43:20;;;;;;;;;;;;;;;30.86;31.41;100711.13;5473326;32;35417;-77
2023/07/07 06:46:24;;;;;;;;;;;;;;;29.97;32.53;100719.88;5472771;32;37192;-76
2023/07/07 06:49:26;;;;;;;;;;;;;;;30.34;32.01;100720.00;5477551;32;34580;-76
2023/07/07 06:52:30;;;;;;;;;;;;;;;31.49;30.61;100722.50;5461162;32;35416;-82
2023/07/07 06:55:32;;;;;;;;;;;;;;;31.76;29.70;100718.28;5466154;32;34567;-82
2023/07/07 06:58:34;;;;;;;;;;;;;;;29.92;30.82;100729.38;5458753;32;35362;-76
2023/07/07 07:01:36;;;;;;;;;;;;;;;30.79;29.60;100725.63;5461913;32;34651;-77
2023/07/07 07:04:39;;;;;;;;;;;;;;;32.25;26.72;100726.59;5477455;32;33072;-76
2023/07/07 07:07:41;;;;;;;;;;;;;;;32.70;26.57;100737.31;5419516;32;865179;-77
2023/07/07 07:10:43;;;;;;;;;;;;;;;30.14;29.83;100727.78;5476281;32;35238;-83
2023/07/07 07:13:47;;;;;;;;;;;;;;;30.83;28.71;100732.34;5460584;32;35582;-83
2023/07/07 07:16:49;;;;;;;;;;;;;;;29.50;31.05;100745.09;5475228;32;35195;-83
2023/07/07 07:19:51;;;;;;;;;;;;;;;29.09;31.47;100742.47;5475258;32;33499;-77
2023/07/07 07:22:53;;;;;;;;;;;;;;;29.42;30.63;100754.91;5465440;32;33184;-83
2023/07/07 07:25:55;;;;;;;;;;;;;;;29.37;30.26;100746.50;5448336;32;34730;-80
2023/07/07 07:28:57;;;;;;;;;;;;;;;27.91;32.72;100758.03;5478835;32;34050;-83
2023/07/07 07:31:59;;;;;;;;;;;;;;;30.08;29.73;100742.00;5462171;32;35143;-76
2023/07/07 07:35:02;;;;;;;;;;;;;;;30.96;28.67;100743.41;5478943;32;34257;-76
2023/07/07 07:38:04;;;;;;;;;;;;;;;30.08;29.37;100754.72;5461920;32;34429;-84
2023/07/07 07:41:06;;;;;;;;;;;;;;;32.61;26.29;100744.78;5461890;32;34570;-76
2023/07/07 07:44:08;;;;;;;;;;;;;;;32.83;25.22;100745.59;5474532;32;35167;-75
2023/07/07 07:47:10;;;;;;;;;;;;;;;31.37;27.29;100753.91;5474442;32;35856;-82
2023/07/07 07:50:13;;;;;;;;;;;;;;;30.48;28.75;100759.06;5460561;32;35144;-83
2023/07/07 07:53:15;;;;;;;;;;;;;;;31.01;27.66;100757.28;5462417;32;34289;-83
2023/07/07 07:56:17;;;;;;;;;;;;;;;31.62;26.87;100751.72;5456602;32;35265;-77
2023/07/07 07:59:19;;;;;;;;;;;;;;;31.43;26.97;100758.56;5480601;32;35079;-77
2023/07/07 08:02:21;;;;;;;;;;;;;;;30.84;27.91;100750.31;5475008;32;35024;-84
2023/07/07 08:05:24;;;;;;;;;;;;;;;31.89;26.34;100764.69;5451595;32;34671;-84
2023/07/07 08:08:26;;;;;;;;;;;;;;;31.04;27.64;100756.91;5454180;32;35170;-77
2023/07/07 08:11:40;;;;;;;;;;;;;;;32.57;25.37;100760.62;5476538;32;34834;-84
2023/07/07 08:14:42;;;;;;;;;;;;;;;31.77;25.64;100761.56;5466327;32;34687;-82
2023/07/07 08:17:44;;;;;;;;;;;;;;;33.82;22.95;100753.62;5464744;32;34994;-81
2023/07/07 08:20:46;;;;;;;;;;;;;;;34.90;21.41;100758.09;5463463;32;35022;-77
2023/07/07 08:23:49;;;;;;;;;;;;;;;34.92;21.96;100760.66;5462138;32;35253;-77
2023/07/07 08:26:51;;;;;;;;;;;;;;;32.75;24.71;100762.91;5477395;32;32824;-82
2023/07/07 08:29:53;;;;;;;;;;;;;;;33.03;24.66;100759.41;5479105;32;34057;-76
2023/07/07 08:32:55;;;;;;;;;;;;;;;32.20;24.97;100759.00;5460817;32;34861;-81
2023/07/07 08:35:57;;;;;;;;;;;;;;;34.52;22.29;100763.31;5466974;32;35336;-76
2023/07/07 08:39:01;;;;;;;;;;;;;;;34.49;22.05;100761.00;5477863;32;34708;-76
2023/07/07 08:42:14;;;;;;;;;;;;;;;33.52;23.15;100766.69;5461655;32;35662;-78
2023/07/07 08:45:17;;;;;;;;;;;;;;;34.13;22.32;100764.03;5459978;32;35419;-80
2023/07/07 08:48:21;;;;;;;;;;;;;;;33.69;22.45;100762.59;5479629;32;34713;-77
2023/07/07 08:51:24;;;;;;;;;;;;;;;34.55;21.65;100757.47;5477975;32;35270;-78
2023/07/07 08:54:29;;;;;;;;;;;;;;;33.37;22.72;100764.06;5462421;32;35259;-77
2023/07/07 08:57:43;;;;;;;;;;;;;;;34.33;21.80;100767.69;5459540;32;34890;-78
2023/07/07 09:01:04;;;;;;;;;;;;;;;32.53;23.78;100775.69;5414098;32;34286;-78
2023/07/07 09:04:26;;;;;;;;;;;;;;;33.08;22.45;100773.25;5430373;32;35329;-79
2023/07/07 09:07:47;;;;;;;;;;;;;;;34.05;20.12;100775.13;5444941;32;34728;-79
2023/07/07 09:11:00;;;;;;;;;;;;;;;33.46;20.62;100770.22;5477875;32;34989;-78
2023/07/07 09:14:02;;;;;;;;;;;;;;;35.14;19.13;100769.47;5470017;32;34342;-79
2023/07/07 09:17:09;;;;;;;;;;;;;;;34.84;19.17;100769.00;5473746;32;34006;-78
2023/07/07 09:20:11;;;;;;;;;;;;;;;37.20;17.04;100772.06;5460199;32;34188;-79
2023/07/07 09:23:17;;;;;;;;;;;;;;;35.36;18.90;100776.37;5452259;32;35063;-79
2023/07/07 09:26:19;;;;;;;;;;;;;;;35.71;18.76;100771.47;5478796;32;34847;-79
2023/07/07 09:29:25;;;;;;;;;;;;;;;35.66;18.29;100776.75;5467320;32;35237;-80
2023/07/07 09:32:27;;;;;;;;;;;;;;;37.58;16.59;100780.97;5449663;32;36227;-80
2023/07/07 09:35:31;;;;;;;;;;;;;;;38.35;15.73;100769.50;5470342;32;35803;-79
2023/07/07 09:38:52;;;;;;;;;;;;;;;37.02;16.88;100773.69;5463183;32;33262;-79
2023/07/07 09:41:54;;;;;;;;;;;;;;;36.27;17.39;100778.22;5475140;32;34392;-79
2023/07/07 09:44:59;;;;;;;;;;;;;;;37.05;17.13;100767.78;5464206;32;36322;-79
2023/07/07 09:48:04;;;;;;;;;;;;;;;36.54;17.52;100771.53;5475553;32;34819;-79
2023/07/07 09:51:16;;;;;;;;;;;;;;;36.01;17.74;100770.97;5464965;32;34876;-79
2023/07/07 09:54:18;;;;;;;;;;;;;;;36.08;17.78;100774.53;5478532;32;35216;-80
2023/07/07 09:57:22;;;;;;;;;;;;;;;38.48;15.79;100772.87;5462166;32;34553;-78
2023/07/07 10:00:24;;;;;;;;;;;;;;;36.51;17.45;100771.94;5464290;32;34773;-78
2023/07/07 10:03:48;;;;;;;;;;;;;;;35.57;18.34;100777.22;5458610;32;34919;-78
2023/07/07 10:06:50;;;;;;;;;;;;;;;34.06;19.76;100779.53;5466464;32;35442;-79
2023/07/07 10:09:53;;;;;;;;;;;;;;;33.92;20.69;100779.50;5461673;32;34399;-78
2023/07/07 10:12:55;;;;;;;;;;;;;;;33.85;20.68;100775.87;5462263;32;34292;-79
2023/07/07 10:16:00;;;;;;;;;;;;;;;34.05;20.69;100783.31;5475161;32;37505;-80
2023/07/07 10:19:09;;;;;;;;;;;;;;;34.92;19.83;100777.91;5463611;32;35187;-81
2023/07/07 10:22:12;;;;;;;;;;;;;;;33.78;21.03;100775.00;5464994;32;35090;-77
2023/07/07 10:25:15;;;;;;;;;;;;;;;36.63;18.05;100776.72;5462340;32;34246;-80
2023/07/07 10:28:18;;;;;;;;;;;;;;;37.10;17.21;100778.06;5452115;32;34894;-79
2023/07/07 10:31:21;;;;;;;;;;;;;;;38.65;15.81;100767.53;5463092;32;35115;-79
2023/07/07 10:34:31;;;;;;;;;;;;;;;38.18;16.18;100764.59;5467012;32;34489;-79
2023/07/07 10:37:34;;;;;;;;;;;;;;;38.04;16.38;100765.87;5462519;32;34612;-79
2023/07/07 10:40:36;;;;;;;;;;;;;;;34.99;18.98;100772.44;5450815;32;34490;-79
2023/07/07 10:43:38;;;;;;;;;;;;;;;34.35;19.67;100764.75;5450693;32;34453;-79
2023/07/07 10:46:40;;;;;;;;;;;;;;;36.81;17.55;100763.09;5472786;32;34503;-79
2023/07/07 10:49:42;;;;;;;;;;;;;;;35.50;18.89;100764.41;5477070;32;34780;-80
2023/07/07 10:52:55;;;;;;;;;;;;;;;33.55;20.82;100766.25;5474848;32;34386;-78
2023/07/07 10:55:59;;;;;;;;;;;;;;;33.45;21.03;100768.53;5458341;32;34564;-78
2023/07/07 10:59:04;;;;;;;;;;;;;;;33.04;21.79;100761.06;5477508;32;34960;-80
2023/07/07 11:02:18;;;;;;;;;;;;;;;33.54;21.38;100767.31;5457716;32;35173;-80
2023/07/07 11:05:40;;;;;;;;;;;;;;;34.43;20.25;100759.97;5449336;32;34145;-79
2023/07/07 11:08:59;;;;;;;;;;;;;;;34.66;19.67;100758.75;5462514;32;34905;-79
2023/07/07 11:12:05;;;;;;;;;;;;;;;34.70;19.56;100757.25;5472639;32;35406;-79
2023/07/07 11:15:13;;;;;;;;;;;;;;;33.55;20.82;100760.81;5476764;32;35417;-78
2023/07/07 11:18:27;;;;;;;;;;;;;;;34.65;20.07;100763.38;5472807;32;35207;-78
2023/07/07 11:21:35;;;;;;;;;;;;;;;36.67;17.94;100745.94;5474308;32;34380;-78
2023/07/07 11:24:41;;;;;;;;;;;;;;;35.00;19.46;100744.91;5478280;32;34753;-78
2023/07/07 11:27:49;;;;;;;;;;;;;;;35.73;18.59;100752.13;5458159;32;33871;-78
2023/07/07 11:30:56;;;;;;;;;;;;;;;34.08;19.98;100759.22;5459076;32;34059;-79
2023/07/07 11:34:01;;;;;;;;;;;;;;;32.61;21.73;100755.66;5458927;32;34944;-79
2023/07/07 11:37:15;;;;;;;;;;;;;;;32.83;21.73;100753.75;5469192;32;33786;-80
2023/07/07 11:40:28;;;;;;;;;;;;;;;31.99;22.41;100762.50;5472046;32;35343;-78
2023/07/07 11:43:38;;;;;;;;;;;;;;;33.89;20.10;100743.59;5456630;32;34950;-78
2023/07/07 11:47:00;;;;;;;;;;;;;;;32.94;21.46;100752.44;5469300;32;34227;-79
2023/07/07 11:50:06;;;;;;;;;;;;;;;32.00;23.08;100763.34;5455702;32;34585;-79
2023/07/07 11:53:17;;;;;;;;;;;;;;;31.39;24.07;100749.13;5469974;32;34396;-79
2023/07/07 11:56:19;;;;;;;;;;;;;;;30.74;25.28;100756.84;5466941;32;34433;-79
2023/07/07 11:59:33;;;;;;;;;;;;;;;32.59;23.04;100750.44;5467570;32;36554;-78
2023/07/07 12:02:41;;;;;;;;;;;;;;;32.43;23.03;100761.56;5455137;32;34572;-78
2023/07/07 12:05:43;;;;;;;;;;;;;;;31.81;24.21;100762.87;5451507;32;34356;-79
2023/07/07 12:08:49;;;;;;;;;;;;;;;31.92;23.76;100749.84;5444272;32;34676;-78
2023/07/07 12:11:53;;;;;;;;;;;;;;;31.72;24.16;100750.41;5451915;32;34675;-79
2023/07/07 12:15:04;;;;;;;;;;;;;;;32.05;23.87;100744.56;5452318;32;34423;-77
2023/07/07 12:18:26;;;;;;;;;;;;;;;31.99;24.69;100748.91;5469965;32;35612;-79
2023/07/07 12:21:29;;;;;;;;;;;;;;;31.49;24.71;100736.09;5464943;32;34870;-78
2023/07/07 12:24:38;;;;;;;;;;;;;;;30.86;25.40;100748.28;5457169;32;35322;-79
2023/07/07 12:27:41;;;;;;;;;;;;;;;31.36;24.55;100746.75;5443098;32;34276;-78
2023/07/07 12:30:45;;;;;;;;;;;;;;;31.44;24.17;100739.38;5454881;32;34407;-78
2023/07/07 12:33:51;;;;;;;;;;;;;;;30.71;24.86;100749.06;5453854;32;33972;-78
2023/07/07 12:36:53;;;;;;;;;;;;;;;29.99;25.78;100737.63;5451894;32;35133;-79
2023/07/07 12:40:05;;;;;;;;;;;;;;;30.02;25.76;100740.00;5442095;32;34923;-78
2023/07/07 12:43:14;;;;;;;;;;;;;;;30.87;24.91;100734.50;5449496;32;35718;-78
2023/07/07 12:46:27;;;;;;;;;;;;;;;31.45;24.13;100729.38;5454547;32;33975;-78
2023/07/07 12:49:36;;;;;;;;;;;;;;;31.10;24.11;100728.19;5451110;32;35271;-79
2023/07/07 12:52:40;;;;;;;;;;;;;;;31.81;23.75;100729.44;5464645;32;33117;-78
2023/07/07 12:56:01;;;;;;;;;;;;;;;30.98;24.96;100725.09;5457375;32;34586;-80
2023/07/07 12:59:03;;;;;;;;;;;;;;;30.17;25.88;100727.41;5466230;32;34600;-79
2023/07/07 13:02:21;;;;;;;;;;;;;;;29.94;26.42;100721.06;5455302;32;34735;-77
2023/07/07 13:05:23;;;;;;;;;;;;;;;29.81;26.43;100726.19;5468927;32;35240;-78
2023/07/07 13:08:38;;;;;;;;;;;;;;;29.80;26.28;100725.37;5465339;32;34615;-79
2023/07/07 13:11:44;;;;;;;;;;;;;;;30.00;25.64;100723.06;5456305;32;34797;-79
2023/07/07 13:14:47;;;;;;;;;;;;;;;30.40;25.39;100729.25;5471837;32;34686;-79
2023/07/07 13:17:49;;;;;;;;;;;;;;;30.07;26.17;100723.19;5452676;32;34177;-79
2023/07/07 13:20:52;;;;;;;;;;;;;;;30.26;25.97;100722.75;5455214;32;35108;-78
2023/07/07 13:23:54;;;;;;;;;;;;;;;29.56;26.65;100728.16;5452673;32;35345;-78
2023/07/07 13:26:56;;;;;;;;;;;;;;;30.37;26.05;100722.34;5450152;32;34702;-77
2023/07/07 13:30:17;;;;;;;;;;;;;;;29.84;26.12;100724.00;5466166;32;35508;-78
2023/07/07 13:33:22;;;;;;;;;;;;;;;30.83;24.30;100722.34;5455862;32;35391;-78
2023/07/07 13:36:24;;;;;;;;;;;;;;;30.29;24.58;100730.53;5449556;32;35207;-78
2023/07/07 13:39:26;;;;;;;;;;;;;;;31.30;23.21;100721.22;5454414;32;35910;-77
2023/07/07 13:42:30;;;;;;;;;;;;;;;29.84;24.99;100729.41;5463740;32;37653;-78
2023/07/07 13:45:32;;;;;;;;;;;;;;;29.30;25.75;100723.81;5448162;32;34737;-78
2023/07/07 13:48:34;;;;;;;;;;;;;;;30.40;24.82;100727.41;5452521;32;34746;-78
2023/07/07 13:51:39;;;;;;;;;;;;;;;30.04;24.93;100726.25;5451860;32;35594;-78
2023/07/07 13:54:41;;;;;;;;;;;;;;;30.94;23.38;100711.03;5454598;32;35815;-77
2023/07/07 13:57:43;;;;;;;;;;;;;;;30.14;24.33;100716.94;5451859;32;34701;-78
2023/07/07 14:00:46;;;;;;;;;;;;;;;31.45;23.13;100718.50;5452363;32;33558;-77
2023/07/07 14:03:49;;;;;;;;;;;;;;;31.38;23.01;100712.13;5452332;32;34441;-78
2023/07/07 14:06:51;;;;;;;;;;;;;;;31.89;22.23;100712.19;5448943;32;34820;-78
2023/07/07 14:09:53;;;;;;;;;;;;;;;31.10;23.61;100704.59;5468893;32;34852;-78
2023/07/07 14:12:55;;;;;;;;;;;;;;;30.15;25.03;100718.59;5440481;32;35297;-78
2023/07/07 14:15:57;;;;;;;;;;;;;;;29.78;25.56;100710.31;5444055;32;34522;-79
2023/07/07 14:19:11;;;;;;;;;;;;;;;30.87;24.24;100709.25;5467188;32;35278;-78
2023/07/07 14:22:13;;;;;;;;;;;;;;;31.08;23.63;100714.78;5466383;32;34921;-78
2023/07/07 14:25:20;;;;;;;;;;;;;;;30.40;24.77;100715.69;5451915;32;35079;-79
2023/07/07 14:28:24;;;;;;;;;;;;;;;30.65;24.09;100717.19;5449343;32;34448;-78
2023/07/07 14:31:26;;;;;;;;;;;;;;;31.23;23.27;100712.97;5451353;32;34503;-78
2023/07/07 14:34:28;;;;;;;;;;;;;;;30.41;24.15;100717.41;5447319;32;36196;-78
2023/07/07 14:37:32;;;;;;;;;;;;;;;31.48;22.36;100707.25;5452819;32;34746;-79
2023/07/07 14:40:42;;;;;;;;;;;;;;;30.93;23.12;100714.78;5448394;32;36695;-78
2023/07/07 14:43:44;;;;;;;;;;;;;;;31.04;23.03;100713.47;5448546;32;34799;-78
2023/07/07 14:46:46;;;;;;;;;;;;;;;30.50;23.67;100721.75;5464027;32;34946;-79
2023/07/07 14:49:48;;;;;;;;;;;;;;;30.06;24.01;100716.91;5462133;32;35470;-79
2023/07/07 14:52:51;;;;;;;;;;;;;;;30.48;23.60;100721.94;5467777;32;34457;-78
2023/07/07 14:55:53;;;;;;;;;;;;;;;30.24;23.69;100724.81;5453721;32;34676;-78
2023/07/07 14:58:59;;;;;;;;;;;;;;;31.85;22.04;100719.88;5439921;32;36510;-78
2023/07/07 15:02:02;;;;;;;;;;;;;;;31.36;23.09;100722.31;5448431;32;34950;-77
2023/07/07 15:05:21;;;;;;;;;;;;;;;30.17;24.10;100721.97;5449302;32;35176;-78
2023/07/07 15:08:24;;;;;;;;;;;;;;;30.00;24.30;100724.91;5465302;32;34721;-78
2023/07/07 15:11:29;;;;;;;;;;;;;;;30.01;24.38;100722.03;5461613;32;32735;-78
2023/07/07 15:14:35;;;;;;;;;;;;;;;30.55;23.99;100707.63;5466667;32;34104;-77
2023/07/07 15:17:37;;;;;;;;;;;;;;;30.52;24.11;100708.81;5461878;32;34918;-79
2023/07/07 15:20:40;;;;;;;;;;;;;;;30.61;23.93;100706.91;5447747;32;34780;-78
2023/07/07 15:23:42;;;;;;;;;;;;;;;30.62;24.13;100709.44;5453226;32;34145;-78
2023/07/07 15:26:44;;;;;;;;;;;;;;;30.85;24.10;100703.16;5464975;32;34067;-78
2023/07/07 15:29:46;;;;;;;;;;;;;;;30.76;24.17;100710.53;5466978;32;34050;-80
2023/07/07 15:32:48;;;;;;;;;;;;;;;31.42;23.50;100703.41;5434963;32;33499;-79
2023/07/07 15:35:51;;;;;;;;;;;;;;;31.04;24.10;100702.63;5451999;32;34961;-79
2023/07/07 15:38:54;;;;;;;;;;;;;;;30.64;24.57;100704.66;5462245;32;35459;-77
2023/07/07 15:41:56;;;;;;;;;;;;;;;30.60;24.64;100705.22;5462414;32;35328;-79
2023/07/07 15:44:58;;;;;;;;;;;;;;;31.20;24.09;100707.87;5464289;32;34399;-78
2023/07/07 15:48:00;;;;;;;;;;;;;;;30.77;24.11;100697.81;5433389;32;34342;-77